Map

Track Data

SID SEASON NUMBER BASIN SUBBASIN NAME ISO_TIME NATURE LAT LON WMO_WIND WMO_PRES WMO_AGENCY TRACK_TYPE DIST2LAND LANDFALL IFLAG USA_AGENCY USA_ATCF_ID USA_LAT USA_LON USA_RECORD USA_STATUS USA_WIND USA_PRES USA_SSHS USA_R34_NE USA_R34_SE USA_R34_SW USA_R34_NW USA_R50_NE USA_R50_SE USA_R50_SW USA_R50_NW USA_R64_NE USA_R64_SE USA_R64_SW USA_R64_NW USA_POCI USA_ROCI USA_RMW USA_EYE TOKYO_LAT TOKYO_LON TOKYO_GRADE TOKYO_WIND TOKYO_PRES TOKYO_R50_DIR TOKYO_R50_LONG TOKYO_R50_SHORT TOKYO_R30_DIR TOKYO_R30_LONG TOKYO_R30_SHORT TOKYO_LAND CMA_LAT CMA_LON CMA_CAT CMA_WIND CMA_PRES HKO_LAT HKO_LON HKO_CAT HKO_WIND HKO_PRES NEWDELHI_LAT NEWDELHI_LON NEWDELHI_GRADE NEWDELHI_WIND NEWDELHI_PRES NEWDELHI_CI NEWDELHI_DP NEWDELHI_POCI REUNION_LAT REUNION_LON REUNION_TYPE REUNION_WIND REUNION_PRES REUNION_TNUM REUNION_CI REUNION_RMW REUNION_R34_NE REUNION_R34_SE REUNION_R34_SW REUNION_R34_NW REUNION_R50_NE REUNION_R50_SE REUNION_R50_SW REUNION_R50_NW REUNION_R64_NE REUNION_R64_SE REUNION_R64_SW REUNION_R64_NW BOM_LAT BOM_LON BOM_TYPE BOM_WIND BOM_PRES BOM_TNUM BOM_CI BOM_RMW BOM_R34_NE BOM_R34_SE BOM_R34_SW BOM_R34_NW BOM_R50_NE BOM_R50_SE BOM_R50_SW BOM_R50_NW BOM_R64_NE BOM_R64_SE BOM_R64_SW BOM_R64_NW BOM_ROCI BOM_POCI BOM_EYE BOM_POS_METHOD BOM_PRES_METHOD NADI_LAT NADI_LON NADI_CAT NADI_WIND NADI_PRES WELLINGTON_LAT WELLINGTON_LON WELLINGTON_WIND WELLINGTON_PRES DS824_LAT DS824_LON DS824_STAGE DS824_WIND DS824_PRES TD9636_LAT TD9636_LON TD9636_STAGE TD9636_WIND TD9636_PRES TD9635_LAT TD9635_LON TD9635_WIND TD9635_PRES TD9635_ROCI NEUMANN_LAT NEUMANN_LON NEUMANN_CLASS NEUMANN_WIND NEUMANN_PRES MLC_LAT MLC_LON MLC_CLASS MLC_WIND MLC_PRES USA_GUST BOM_GUST BOM_GUST_PER REUNION_GUST REUNION_GUST_PER USA_SEAHGT USA_SEARAD_NE USA_SEARAD_SE USA_SEARAD_SW USA_SEARAD_NW STORM_SPEED STORM_DIR
1969056S13178 1969 15 SP MM NOT_NAMED 1969-02-25 00:00:00 TS -13.0000 178.100 main 398 320 O________OO_O_ jtwc_sh SH251969 -13.0000 178.100 -1 -13.0000 178.100 TC 65 -13.0000 178.100 4 -13.0000 178.100 TC 50 19 124
1969056S13178 1969 15 SP MM NOT_NAMED 1969-02-25 03:00:00 TS -13.5268 178.892 main 317 247 P________PP_P_ SH251969 -13.5431 178.924 -1 -13.5431 178.924 TC 65 -13.5507 178.869 4 -13.4704 178.852 TC 52 19 125
1969056S13178 1969 15 SP MM NOT_NAMED 1969-02-25 06:00:00 TS -14.0775 179.656 main 235 181 O________OP_O_ jtwc_sh SH251969 -14.1000 179.700 -1 -14.1000 179.700 TC 65 -14.1101 179.622 4 -14.0000 179.600 TC 55 18 129
1969056S13178 1969 15 SP MM NOT_NAMED 1969-02-25 09:00:00 TS -14.6716 180.361 main 176 154 P________PP_P_ SH251969 -14.6847 -179.612 -1 -14.6847 -179.612 TC 65 -14.6894 -179.661 4 -14.6274 -179.670 TC 57 18 133
1969056S13178 1969 15 SP MM NOT_NAMED 1969-02-25 12:00:00 TS -15.3000 181.000 main 154 154 O________OO_O_ jtwc_sh SH251969 -15.3000 -179.000 -1 -15.3000 181.000 TC 65 -15.3000 -179.000 4 -15.3000 -179.000 TC 60 17 137
1969056S13178 1969 15 SP MM NOT_NAMED 1969-02-25 15:00:00 TS -15.9403 181.579 main 184 183 P________PP_P_ SH251969 -15.9348 -178.427 -1 -15.9348 -178.427 TC 65 -15.9493 -178.408 4 -15.9422 -178.419 TC 60 17 141
1969056S13178 1969 15 SP MM NOT_NAMED 1969-02-25 18:00:00 TS -16.6065 182.107 main 235 235 O________OP_O_ jtwc_sh SH251969 -16.6000 -177.900 -1 -16.6000 182.100 TC 65 -16.6262 -177.874 4 -16.6000 -177.900 TC 60 17 144
1969056S13178 1969 15 SP MM NOT_NAMED 1969-02-25 21:00:00 TS -17.3036 182.612 main 292 292 P________PP_P_ SH251969 -17.2998 -177.392 -1 -17.2998 -177.392 TC 65 -17.3151 -177.377 4 -17.2998 -177.392 TC 62 17 146
1969056S13178 1969 15 SP MM NOT_NAMED 1969-02-26 00:00:00 TS -18.0000 183.100 main 365 365 O________OO_O_ jtwc_sh SH251969 -18.0000 -176.900 -1 -18.0000 183.100 TC 65 -18.0000 -176.900 4 -18.0000 -176.900 TC 65 17 145
1969056S13178 1969 15 SP MM NOT_NAMED 1969-02-26 03:00:00 TS -18.6594 183.612 main 445 445 P________PP_P_ SH251969 -18.6574 -176.392 -1 -18.6574 -176.392 TC 65 -18.6652 -176.374 4 -18.6574 -176.392 TC 67 16 144
1969056S13178 1969 15 SP MM NOT_NAMED 1969-02-26 06:00:00 TS -19.3056 184.108 main 524 524 O________OP_O_ jtwc_sh SH251969 -19.3000 -175.900 -1 -19.3000 184.100 TC 65 -19.3225 -175.868 4 -19.3000 -175.900 TC 70 16 145
1969056S13178 1969 15 SP MM NOT_NAMED 1969-02-26 09:00:00 TS -19.9603 184.590 main 611 611 P________PP_P_ SH251969 -19.9575 -175.412 -1 -19.9575 -175.412 TC 65 -19.9685 -175.402 4 -19.9575 -175.412 TC 70 15 147
1969056S13178 1969 15 SP MM NOT_NAMED 1969-02-26 12:00:00 TS -20.6000 185.000 main 684 684 O________OO_O_ jtwc_sh SH251969 -20.6000 -175.000 -1 -20.6000 185.000 TC 65 -20.6000 -175.000 4 -20.6000 -175.000 TC 70 14 152
1969056S13178 1969 15 SP MM NOT_NAMED 1969-02-26 15:00:00 TS -21.2078 185.287 main 751 751 P________PP_P_ SH251969 -21.2073 -174.719 -1 -21.2073 -174.719 TC 65 -21.2094 -174.695 4 -21.2073 -174.719 TC 67 13 158
1969056S13178 1969 15 SP MM NOT_NAMED 1969-02-26 18:00:00 TS -21.8016 185.512 main 811 811 O________OP_O_ jtwc_sh SH251969 -21.8000 -174.500 -1 -21.8000 185.500 TC 65 -21.8063 -174.452 4 -21.8000 -174.500 TC 65 13 160
1969056S13178 1969 15 SP MM NOT_NAMED 1969-02-26 21:00:00 TS -22.3981 185.749 main 872 872 P________PP_P_ SH251969 -22.3999 -174.257 -1 -22.3999 -174.257 TC 65 -22.4001 -174.233 4 -22.3924 -174.257 TC 62 13 159
1969056S13178 1969 15 SP MM NOT_NAMED 1969-02-27 00:00:00 TS -23.0000 186.000 main 936 936 O________OO_O_ jtwc_sh SH251969 -23.0000 -174.000 -1 -23.0000 186.000 TC 65 -23.0000 -174.000 4 -23.0000 -174.000 TC 60 13 158
1969056S13178 1969 15 SP MM NOT_NAMED 1969-02-27 03:00:00 TS -23.6119 186.283 main 1000 1000 P________PP_P_ SH251969 -23.5924 -173.715 -1 -23.5924 -173.715 TC 65 -23.6127 -173.724 4 -23.6499 -173.715 TC 57 14 156
1969056S13178 1969 15 SP MM NOT_NAMED 1969-02-27 06:00:00 TS -24.2341 186.598 main 1065 1065 O________OP_O_ jtwc_sh SH251969 -24.2000 -173.400 -1 -24.2000 186.600 TC 65 -24.2363 -173.407 4 -24.3000 -173.400 TC 55 14 154
1969056S13178 1969 15 SP MM NOT_NAMED 1969-02-27 09:00:00 TS -24.8649 186.941 main 1138 1138 P________PP_P_ SH251969 -24.8402 -173.058 -1 -24.8402 -173.058 TC 65 -24.8667 -173.062 4 -24.9127 -173.058 TC 52 14 153
1969056S13178 1969 15 SP MM NOT_NAMED 1969-02-27 12:00:00 TS -25.5000 187.300 main 1212 O________OO_O_ jtwc_sh SH251969 -25.5000 -172.700 -1 -25.5000 187.300 TC 65 -25.5000 -172.700 4 -25.5000 -172.700 TC 50 14 153

Digital Typhoon Data and Search

About IBTrACS Database

This database is a web-friendly format of International Best Track Archive for Climate Stewardship (IBTrACS), a global best track data archive curated by NOAA dating back to 1842.

Updated: 2021-10-08